createdAt,value
2017-08-01T00:00:53.011Z,18.50
2017-08-01T00:03:20.553Z,18.60
2017-08-01T00:05:48.078Z,18.60
2017-08-01T00:08:15.619Z,18.50
2017-08-01T00:10:43.140Z,18.40
2017-08-01T00:13:10.679Z,18.50
2017-08-01T00:15:38.199Z,18.60
2017-08-01T00:18:05.749Z,18.80
2017-08-01T00:20:33.277Z,18.80
2017-08-01T00:23:00.826Z,19.00
2017-08-01T00:25:28.351Z,19.00
2017-08-01T00:27:55.877Z,18.90
2017-08-01T00:30:24.182Z,18.70
2017-08-01T00:32:51.713Z,18.70
2017-08-01T00:35:19.255Z,18.70
2017-08-01T00:37:47.543Z,18.70
2017-08-01T00:40:15.845Z,18.80
2017-08-01T00:42:43.367Z,18.80
2017-08-01T00:45:11.673Z,18.80
2017-08-01T00:47:39.196Z,18.80
2017-08-01T00:50:06.743Z,18.80
2017-08-01T00:52:34.268Z,18.80
2017-08-01T00:55:01.802Z,18.90
2017-08-01T00:57:29.326Z,18.90
2017-08-01T00:59:56.872Z,18.80
2017-08-01T01:02:24.404Z,18.70
2017-08-01T01:04:51.928Z,18.60
2017-08-01T01:07:19.478Z,18.50
2017-08-01T01:09:47.764Z,18.50
2017-08-01T01:12:15.302Z,18.40
2017-08-01T01:14:43.583Z,18.50
2017-08-01T01:17:11.891Z,18.50
2017-08-01T01:19:39.412Z,18.50
2017-08-01T01:22:06.956Z,18.50
2017-08-01T01:24:34.483Z,18.50
2017-08-01T01:27:02.022Z,18.40
2017-08-01T01:29:29.543Z,18.40
2017-08-01T01:31:57.099Z,18.50
2017-08-01T01:34:24.615Z,18.50
2017-08-01T01:36:52.130Z,18.50
2017-08-01T01:39:19.677Z,18.50
2017-08-01T01:41:47.196Z,18.50
2017-08-01T01:44:14.738Z,18.40
2017-08-01T01:46:42.249Z,18.40
2017-08-01T01:49:09.782Z,18.40
2017-08-01T01:51:37.303Z,18.40
2017-08-01T01:54:05.610Z,18.50
2017-08-01T01:56:33.122Z,18.50
2017-08-01T01:59:00.667Z,18.50
2017-08-01T02:01:28.186Z,18.50
2017-08-01T02:03:55.745Z,18.50
2017-08-01T02:06:23.267Z,18.50
2017-08-01T02:08:50.786Z,18.60
2017-08-01T02:11:19.103Z,18.40
2017-08-01T02:13:46.619Z,18.30
2017-08-01T02:16:14.163Z,18.50
2017-08-01T02:18:41.679Z,18.70
2017-08-01T02:21:09.219Z,18.90
2017-08-01T02:23:36.738Z,19.10
2017-08-01T02:26:04.280Z,19.30
2017-08-01T02:28:31.807Z,19.50
2017-08-01T02:31:00.110Z,19.70
2017-08-01T02:33:27.630Z,19.60
2017-08-01T02:35:55.178Z,19.80
2017-08-01T02:38:22.695Z,19.80
2017-08-01T02:40:50.211Z,19.80
2017-08-01T02:43:17.754Z,19.80
2017-08-01T02:45:45.274Z,19.80
2017-08-01T02:48:12.811Z,19.80
2017-08-01T02:50:40.344Z,19.80
2017-08-01T02:53:07.891Z,19.70
2017-08-01T02:55:35.417Z,19.70
2017-08-01T02:58:03.723Z,19.70
2017-08-01T03:00:31.247Z,19.60
2017-08-01T03:02:58.787Z,19.60
2017-08-01T03:05:26.303Z,19.60
2017-08-01T03:07:53.863Z,19.50
2017-08-01T03:10:21.383Z,19.50
2017-08-01T03:12:48.897Z,19.50
2017-08-01T03:15:16.462Z,19.40
2017-08-01T03:17:43.977Z,19.30
2017-08-01T03:20:11.519Z,19.20
2017-08-01T03:22:39.811Z,19.10
2017-08-01T03:25:07.346Z,19.10
2017-08-01T03:27:34.872Z,19.10
2017-08-01T03:30:02.416Z,19.10
2017-08-01T03:32:29.938Z,19.00
2017-08-01T03:34:57.487Z,18.90
2017-08-01T03:37:25.780Z,18.70
2017-08-01T03:39:53.306Z,18.70
2017-08-01T03:42:20.842Z,18.70
2017-08-01T03:44:49.140Z,18.60
2017-08-01T03:47:17.443Z,18.70
2017-08-01T03:49:44.958Z,18.70
2017-08-01T03:54:44.809Z,18.70
2017-08-01T03:57:12.351Z,18.60
2017-08-01T03:59:39.873Z,18.60
2017-08-01T04:02:07.390Z,18.50
2017-08-01T04:04:34.925Z,18.50
2017-08-01T04:07:02.449Z,18.50
2017-08-01T04:09:29.991Z,18.50
2017-08-01T04:11:57.506Z,18.60
2017-08-01T04:14:25.043Z,18.50
2017-08-01T04:16:52.565Z,18.60
2017-08-01T04:19:20.105Z,18.50
2017-08-01T04:21:47.626Z,18.50
2017-08-01T04:24:15.164Z,18.50
2017-08-01T04:26:43.454Z,18.50
2017-08-01T04:29:11.000Z,18.50
2017-08-01T04:31:38.520Z,18.50
2017-08-01T04:34:06.038Z,18.50
2017-08-01T04:36:33.577Z,18.60
2017-08-01T04:39:01.869Z,18.60
2017-08-01T04:41:30.180Z,18.60
2017-08-01T04:43:57.694Z,18.60
2017-08-01T04:46:25.228Z,18.70
2017-08-01T04:48:52.751Z,18.70
2017-08-01T04:51:20.288Z,18.60
2017-08-01T04:53:47.803Z,18.60
2017-08-01T04:56:15.346Z,18.60
2017-08-01T04:58:42.866Z,18.70
2017-08-01T05:01:11.153Z,18.70
2017-08-01T05:03:38.686Z,18.70
2017-08-01T05:06:06.206Z,18.90
2017-08-01T05:08:33.746Z,19.50
2017-08-01T05:11:02.025Z,20.80
2017-08-01T05:13:30.326Z,21.50
2017-08-01T05:15:58.610Z,22.30
2017-08-01T05:18:26.141Z,22.20
2017-08-01T05:20:54.427Z,23.70
2017-08-01T05:23:22.737Z,24.40
2017-08-01T05:25:50.254Z,24.40
2017-08-01T05:28:17.793Z,24.80
2017-08-01T05:30:45.315Z,25.50
2017-08-01T05:33:12.842Z,26.10
2017-08-01T05:35:40.432Z,26.30
2017-08-01T05:38:07.970Z,26.30
2017-08-01T05:40:35.510Z,25.50
2017-08-01T05:43:03.027Z,24.80
2017-08-01T05:45:30.570Z,24.10
2017-08-01T05:47:58.850Z,23.10
2017-08-01T05:50:26.390Z,23.10
2017-08-01T05:52:53.912Z,23.00
2017-08-01T05:55:21.445Z,22.90
2017-08-01T05:57:48.975Z,22.70
2017-08-01T06:00:16.493Z,22.50
2017-08-01T06:02:44.031Z,22.40
2017-08-01T06:05:11.549Z,22.60
2017-08-01T06:07:39.086Z,22.90
2017-08-01T06:10:07.368Z,25.20
2017-08-01T06:12:34.906Z,25.10
2017-08-01T06:15:02.422Z,26.20
2017-08-01T06:17:29.957Z,27.30
2017-08-01T06:19:58.242Z,27.40
2017-08-01T06:22:26.360Z,27.40
2017-08-01T06:24:53.873Z,27.00
2017-08-01T06:27:21.390Z,27.20
2017-08-01T06:29:48.923Z,27.80
2017-08-01T06:32:16.443Z,28.60
2017-08-01T06:34:43.978Z,28.30
2017-08-01T06:37:11.498Z,28.00
2017-08-01T06:39:39.035Z,27.90
2017-08-01T06:42:06.557Z,28.10
2017-08-01T06:44:34.090Z,27.80
2017-08-01T06:47:01.602Z,27.80
2017-08-01T06:49:29.146Z,28.10
2017-08-01T06:51:56.668Z,28.50
2017-08-01T06:54:24.190Z,28.60
2017-08-01T06:56:51.740Z,28.60
2017-08-01T06:59:19.260Z,28.40
2017-08-01T07:01:46.791Z,28.10
2017-08-01T07:04:14.306Z,28.30
2017-08-01T07:06:41.838Z,28.50
2017-08-01T07:09:09.359Z,28.60
2017-08-01T07:11:36.894Z,29.20
2017-08-01T07:14:04.414Z,29.20
2017-08-01T07:16:32.738Z,29.50
2017-08-01T07:19:01.028Z,30.10
2017-08-01T07:21:30.162Z,30.10
2017-08-01T07:23:57.702Z,30.10
2017-08-01T07:26:25.222Z,30.20
2017-08-01T07:28:52.761Z,30.50
2017-08-01T07:31:20.285Z,30.10
2017-08-01T07:33:47.822Z,29.80
2017-08-01T07:36:15.342Z,30.20
2017-08-01T07:38:42.874Z,30.50
2017-08-01T07:41:10.390Z,31.00
2017-08-01T07:43:37.962Z,31.40
2017-08-01T07:46:05.480Z,31.80
2017-08-01T07:48:33.002Z,32.00
2017-08-01T07:51:01.302Z,32.40
2017-08-01T07:53:28.818Z,32.40
2017-08-01T07:55:56.350Z,32.40
2017-08-01T07:58:23.872Z,32.50
2017-08-01T08:00:51.419Z,32.50
2017-08-01T08:03:18.941Z,32.30
2017-08-01T08:05:46.475Z,32.10
2017-08-01T08:08:14.000Z,32.00
2017-08-01T08:10:41.560Z,31.80
2017-08-01T08:13:09.078Z,31.90
2017-08-01T08:15:36.594Z,32.10
2017-08-01T08:18:04.141Z,32.10
2017-08-01T08:20:31.666Z,32.10
2017-08-01T08:22:59.202Z,32.20
2017-08-01T08:25:26.730Z,32.50
2017-08-01T08:27:54.267Z,32.80
2017-08-01T08:30:21.782Z,33.00
2017-08-01T08:32:49.322Z,33.30
2017-08-01T08:35:16.844Z,33.40
2017-08-01T08:37:44.389Z,33.50
2017-08-01T08:40:11.916Z,33.50
2017-08-01T08:42:40.198Z,34.30
2017-08-01T08:45:07.743Z,34.20
2017-08-01T08:47:35.261Z,34.20
2017-08-01T08:50:02.797Z,34.30
2017-08-01T08:52:30.314Z,34.30
2017-08-01T08:54:58.627Z,34.10
2017-08-01T08:57:26.147Z,34.10
2017-08-01T08:59:53.698Z,33.90
2017-08-01T09:02:21.218Z,33.70
2017-08-01T09:04:48.738Z,33.60
2017-08-01T09:07:16.279Z,33.50
2017-08-01T09:09:43.797Z,33.50
2017-08-01T09:12:11.346Z,33.30
2017-08-01T09:14:38.875Z,33.10
2017-08-01T09:17:06.417Z,33.20
2017-08-01T09:19:33.931Z,33.70
2017-08-01T09:22:01.472Z,34.00
2017-08-01T09:24:28.989Z,33.70
2017-08-01T09:26:57.313Z,33.60
2017-08-01T09:29:24.834Z,33.60
2017-08-01T09:31:52.355Z,33.90
2017-08-01T09:34:19.895Z,33.90
2017-08-01T09:36:47.419Z,33.80
2017-08-01T09:39:14.957Z,33.20
2017-08-01T09:41:42.474Z,33.40
2017-08-01T09:44:10.014Z,33.60
2017-08-01T09:46:37.533Z,34.10
2017-08-01T09:49:05.070Z,34.10
2017-08-01T09:51:32.587Z,33.70
2017-08-01T09:54:00.122Z,33.80
2017-08-01T09:56:27.638Z,33.90
2017-08-01T09:58:55.177Z,34.00
2017-08-01T10:01:22.694Z,34.40
2017-08-01T10:03:50.208Z,34.60
2017-08-01T10:06:17.743Z,34.50
2017-08-01T10:08:46.036Z,34.90
2017-08-01T10:11:13.572Z,34.90
2017-08-01T10:13:41.085Z,35.10
2017-08-01T10:16:08.677Z,35.20
2017-08-01T10:18:36.973Z,35.00
2017-08-01T10:21:04.510Z,34.90
2017-08-01T10:23:32.022Z,35.20
2017-08-01T10:25:59.558Z,35.30
2017-08-01T10:28:27.071Z,35.20
2017-08-01T10:30:54.626Z,35.30
2017-08-01T10:33:22.147Z,35.80
2017-08-01T10:35:50.442Z,36.30
2017-08-01T10:38:17.994Z,36.20
2017-08-01T10:40:45.509Z,36.80
2017-08-01T10:43:13.041Z,37.10
2017-08-01T10:45:41.328Z,37.10
2017-08-01T10:48:08.870Z,37.00
2017-08-01T10:50:36.403Z,36.70
2017-08-01T10:53:04.718Z,36.60
2017-08-01T10:55:32.238Z,36.60
2017-08-01T10:57:59.775Z,36.90
2017-08-01T11:00:27.291Z,36.80
2017-08-01T11:02:54.822Z,36.70
2017-08-01T11:05:23.111Z,36.90
2017-08-01T11:07:50.676Z,36.90
2017-08-01T11:10:18.957Z,37.40
2017-08-01T11:12:46.474Z,37.40
2017-08-01T11:15:14.007Z,37.60
2017-08-01T11:17:41.523Z,36.90
2017-08-01T11:20:09.063Z,36.40
2017-08-01T11:22:36.588Z,36.50
2017-08-01T11:25:04.126Z,36.80
2017-08-01T11:27:31.638Z,36.80
2017-08-01T11:29:59.942Z,36.70
2017-08-01T11:32:27.467Z,36.70
2017-08-01T11:34:55.014Z,36.80
2017-08-01T11:37:22.540Z,37.20
2017-08-01T11:39:50.089Z,37.30
2017-08-01T11:42:18.371Z,37.10
2017-08-01T11:44:46.663Z,36.10
2017-08-01T11:47:14.970Z,35.50
2017-08-01T11:49:42.490Z,35.40
2017-08-01T11:52:10.031Z,35.10
2017-08-01T11:54:37.550Z,35.10
2017-08-01T11:57:05.091Z,34.80
2017-08-01T11:59:32.609Z,34.60
2017-08-01T12:02:00.152Z,34.40
2017-08-01T12:04:27.673Z,34.10
2017-08-01T12:06:55.209Z,33.70
2017-08-01T12:09:22.735Z,33.60
2017-08-01T12:11:50.266Z,33.40
2017-08-01T12:14:17.788Z,33.50
2017-08-01T12:16:46.096Z,33.80
2017-08-01T12:19:13.626Z,33.80
2017-08-01T12:21:41.150Z,33.60
2017-08-01T12:24:08.694Z,33.70
2017-08-01T12:26:36.210Z,33.90
2017-08-01T12:29:04.513Z,33.50
2017-08-01T12:31:32.030Z,33.50
2017-08-01T12:33:59.575Z,33.60
2017-08-01T12:36:27.095Z,33.50
2017-08-01T12:38:55.399Z,34.30
2017-08-01T12:41:22.918Z,34.20
2017-08-01T12:43:50.471Z,34.10
2017-08-01T12:46:17.994Z,34.10
2017-08-01T12:48:46.286Z,34.10
2017-08-01T12:51:13.822Z,34.00
2017-08-01T12:53:41.334Z,34.00
2017-08-01T12:56:08.876Z,34.30
2017-08-01T12:58:36.399Z,34.70
2017-08-01T13:01:03.934Z,35.00
2017-08-01T13:03:32.218Z,34.60
2017-08-01T13:05:59.758Z,34.60
2017-08-01T13:08:27.286Z,34.50
2017-08-01T13:10:54.829Z,34.70
2017-08-01T13:13:22.351Z,34.70
2017-08-01T13:15:49.881Z,34.50
2017-08-01T13:18:17.418Z,34.80
2017-08-01T13:20:44.934Z,35.00
2017-08-01T13:23:12.468Z,34.80
2017-08-01T13:25:39.990Z,34.60
2017-08-01T13:28:07.531Z,34.40
2017-08-01T13:30:35.053Z,34.10
2017-08-01T13:33:02.598Z,34.10
2017-08-01T13:35:30.115Z,34.10
2017-08-01T13:37:58.423Z,34.40
2017-08-01T13:40:25.951Z,34.40
2017-08-01T13:42:53.500Z,34.60
2017-08-01T13:45:21.028Z,34.50
2017-08-01T13:47:49.311Z,34.40
2017-08-01T13:50:17.615Z,33.90
2017-08-01T13:52:45.138Z,33.90
2017-08-01T13:55:13.443Z,33.30
2017-08-01T13:57:40.961Z,33.30
2017-08-01T14:00:08.498Z,33.40
2017-08-01T14:02:36.023Z,33.40
2017-08-01T14:05:03.558Z,33.50
2017-08-01T14:07:31.080Z,33.70
2017-08-01T14:09:59.382Z,33.60
2017-08-01T14:12:26.915Z,33.60
2017-08-01T14:14:54.459Z,33.20
2017-08-01T14:17:21.974Z,32.90
2017-08-01T14:19:50.261Z,32.50
2017-08-01T14:22:17.802Z,32.50
2017-08-01T14:24:45.318Z,32.10
2017-08-01T14:27:12.859Z,31.50
2017-08-01T14:29:40.379Z,31.00
2017-08-01T14:32:07.918Z,30.30
2017-08-01T14:34:35.433Z,29.80
2017-08-01T14:37:03.735Z,29.40
2017-08-01T14:39:31.249Z,29.30
2017-08-01T14:41:58.789Z,29.20
2017-08-01T14:44:26.307Z,29.20
2017-08-01T14:46:53.823Z,29.40
2017-08-01T14:49:21.362Z,29.30
2017-08-01T14:51:49.642Z,29.00
2017-08-01T14:54:17.945Z,28.70
2017-08-01T14:56:45.462Z,28.70
2017-08-01T14:59:13.006Z,28.70
2017-08-01T15:01:40.530Z,28.70
2017-08-01T15:04:08.067Z,28.70
2017-08-01T15:06:35.590Z,28.70
2017-08-01T15:09:03.141Z,28.60
2017-08-01T15:11:30.664Z,28.30
2017-08-01T15:13:58.183Z,27.80
2017-08-01T15:16:25.727Z,27.80
2017-08-01T15:18:53.247Z,27.90
2017-08-01T15:21:20.789Z,27.90
2017-08-01T15:23:49.074Z,27.60
2017-08-01T15:26:17.378Z,27.30
2017-08-01T15:28:44.893Z,27.30
2017-08-01T15:31:12.436Z,27.20
2017-08-01T15:33:39.954Z,27.30
2017-08-01T15:36:07.490Z,27.30
2017-08-01T15:38:35.015Z,27.30
2017-08-01T15:41:02.556Z,27.40
2017-08-01T15:43:30.069Z,27.30
2017-08-01T15:45:57.629Z,27.40
2017-08-01T15:48:25.146Z,27.30
2017-08-01T15:50:52.671Z,27.40
2017-08-01T15:53:20.210Z,27.40
2017-08-01T15:55:47.730Z,27.50
2017-08-01T15:58:16.034Z,27.70
2017-08-01T16:00:43.556Z,27.70
2017-08-01T16:03:11.100Z,27.80
2017-08-01T16:05:38.618Z,27.80
2017-08-01T16:08:06.152Z,27.90
2017-08-01T16:10:33.671Z,27.90
2017-08-01T16:13:01.210Z,27.70
2017-08-01T16:15:28.728Z,27.50
2017-08-01T16:17:56.271Z,27.50
2017-08-01T16:20:24.558Z,27.30
2017-08-01T16:22:52.110Z,27.40
2017-08-01T16:25:19.627Z,27.20
2017-08-01T16:27:47.906Z,27.10
2017-08-01T16:30:15.450Z,27.10
2017-08-01T16:32:43.735Z,26.70
2017-08-01T16:35:11.280Z,26.70
2017-08-01T16:37:39.570Z,26.40
2017-08-01T16:40:07.868Z,26.40
2017-08-01T16:42:35.398Z,26.40
2017-08-01T16:45:03.711Z,26.30
2017-08-01T16:47:31.230Z,26.20
2017-08-01T16:49:58.765Z,26.20
2017-08-01T16:52:27.056Z,26.10
2017-08-01T16:54:54.600Z,26.00
2017-08-01T16:57:22.884Z,26.00
2017-08-01T16:59:50.418Z,26.00
2017-08-01T17:02:17.935Z,25.80
2017-08-01T17:04:45.476Z,25.70
2017-08-01T17:07:12.994Z,25.60
2017-08-01T17:09:40.510Z,25.50
2017-08-01T17:12:08.046Z,25.50
2017-08-01T17:14:35.564Z,25.50
2017-08-01T17:17:03.097Z,25.50
2017-08-01T17:19:30.618Z,25.60
2017-08-01T17:21:58.159Z,25.70
2017-08-01T17:24:25.683Z,25.80
2017-08-01T17:26:53.222Z,25.80
2017-08-01T17:29:20.741Z,25.90
2017-08-01T17:31:48.286Z,25.70
2017-08-01T17:34:15.802Z,25.40
2017-08-01T17:36:43.343Z,25.20
2017-08-01T17:39:10.861Z,25.00
2017-08-01T17:41:38.382Z,24.70
2017-08-01T17:44:05.914Z,24.50
2017-08-01T17:46:33.435Z,24.40
2017-08-01T17:49:00.974Z,24.40
2017-08-01T17:51:28.499Z,24.30
2017-08-01T17:53:56.038Z,24.10
2017-08-01T17:56:23.553Z,23.70
2017-08-01T17:58:51.090Z,23.50
2017-08-01T18:01:19.374Z,23.40
2017-08-01T18:03:46.918Z,23.40
2017-08-01T18:06:14.442Z,23.30
2017-08-01T18:08:41.982Z,23.10
2017-08-01T18:11:10.262Z,23.00
2017-08-01T18:13:37.781Z,23.00
2017-08-01T18:16:05.320Z,23.10
2017-08-01T18:18:32.841Z,23.10
2017-08-01T18:21:00.377Z,23.10
2017-08-01T18:23:27.893Z,23.10
2017-08-01T18:25:55.428Z,23.20
2017-08-01T18:28:22.942Z,23.20
2017-08-01T18:30:50.486Z,23.20
2017-08-01T18:33:17.998Z,23.10
2017-08-01T18:35:45.539Z,22.90
2017-08-01T18:38:13.822Z,22.70
2017-08-01T18:40:41.365Z,22.70
2017-08-01T18:43:08.882Z,22.60
2017-08-01T18:45:37.195Z,22.60
2017-08-01T18:48:04.714Z,22.50
2017-08-01T18:50:32.235Z,22.60
2017-08-01T18:53:00.544Z,22.40
2017-08-01T18:55:28.059Z,22.40
2017-08-01T18:57:55.595Z,22.30
2017-08-01T19:00:23.118Z,22.20
2017-08-01T19:02:50.655Z,22.30
2017-08-01T19:05:18.945Z,22.30
2017-08-01T19:07:46.490Z,22.30
2017-08-01T19:10:14.009Z,22.30
2017-08-01T19:12:41.545Z,22.10
2017-08-01T19:15:09.064Z,22.00
2017-08-01T19:17:37.366Z,21.80
2017-08-01T19:20:04.952Z,21.80
2017-08-01T19:22:32.472Z,21.80
2017-08-01T19:25:00.019Z,21.90
2017-08-01T19:27:27.609Z,21.90
2017-08-01T19:29:55.143Z,22.00
2017-08-01T19:32:22.670Z,22.10
2017-08-01T19:34:50.202Z,22.10
2017-08-01T19:37:17.727Z,22.00
2017-08-01T19:39:45.267Z,21.80
2017-08-01T19:42:12.786Z,21.70
2017-08-01T19:44:40.362Z,21.50
2017-08-01T19:47:07.881Z,21.40
2017-08-01T19:49:35.395Z,21.40
2017-08-01T19:52:03.701Z,21.50
2017-08-01T19:54:31.227Z,21.50
2017-08-01T19:56:59.531Z,21.40
2017-08-01T19:59:27.115Z,21.40
2017-08-01T20:01:54.711Z,21.20
2017-08-01T20:04:23.005Z,21.00
2017-08-01T20:06:50.542Z,21.00
2017-08-01T20:09:18.063Z,21.00
2017-08-01T20:11:45.608Z,21.00
2017-08-01T20:14:13.137Z,21.10
2017-08-01T20:16:41.440Z,21.20
2017-08-01T20:19:09.729Z,21.40
2017-08-01T20:21:37.280Z,21.40
2017-08-01T20:24:04.797Z,21.30
2017-08-01T20:26:32.317Z,21.30
2017-08-01T20:28:59.858Z,21.30
2017-08-01T20:31:27.463Z,21.20
2017-08-01T20:33:54.998Z,21.10
2017-08-01T20:36:22.557Z,21.10
2017-08-01T20:38:50.094Z,21.20
2017-08-01T20:41:17.616Z,21.20
2017-08-01T20:43:45.162Z,21.20
2017-08-01T20:46:12.688Z,21.20
2017-08-01T20:48:40.217Z,21.10
2017-08-01T20:51:07.797Z,21.00
2017-08-01T20:53:35.358Z,20.90
2017-08-01T20:56:02.886Z,20.90
2017-08-01T20:58:30.406Z,20.90
2017-08-01T21:00:57.942Z,20.90
2017-08-01T21:03:25.463Z,20.90
2017-08-01T21:05:53.012Z,21.00
2017-08-01T21:08:20.530Z,21.00
2017-08-01T21:10:48.083Z,21.00
2017-08-01T21:13:15.611Z,21.00
2017-08-01T21:15:43.147Z,21.00
2017-08-01T21:18:11.443Z,21.10
2017-08-01T21:20:38.991Z,21.00
2017-08-01T21:23:07.269Z,21.00
2017-08-01T21:25:35.594Z,21.00
2017-08-01T21:28:03.116Z,20.90
2017-08-01T21:30:30.634Z,20.90
2017-08-01T21:32:58.175Z,20.70
2017-08-01T21:35:26.457Z,20.70
2017-08-01T21:37:53.995Z,20.70
2017-08-01T21:40:21.516Z,20.80
2017-08-01T21:42:49.054Z,20.80
2017-08-01T21:45:16.573Z,20.90
2017-08-01T21:47:44.877Z,20.90
2017-08-01T21:50:12.394Z,20.90
2017-08-01T21:52:40.698Z,20.80
2017-08-01T21:55:08.224Z,20.80
2017-08-01T21:57:35.759Z,20.70
2017-08-01T22:00:03.274Z,20.60
2017-08-01T22:02:30.814Z,20.60
2017-08-01T22:04:58.339Z,20.50
2017-08-01T22:07:25.885Z,20.50
2017-08-01T22:09:53.407Z,20.50
2017-08-01T22:12:20.927Z,20.50
2017-08-01T22:14:48.467Z,20.30
2017-08-01T22:17:15.991Z,20.30
2017-08-01T22:19:43.530Z,20.20
2017-08-01T22:22:11.058Z,20.00
2017-08-01T22:24:38.605Z,20.00
2017-08-01T22:27:06.125Z,19.90
2017-08-01T22:29:33.662Z,19.90
2017-08-01T22:32:01.184Z,19.90
2017-08-01T22:34:28.727Z,19.90
2017-08-01T22:36:56.244Z,19.90
2017-08-01T22:39:23.772Z,19.90
2017-08-01T22:41:51.312Z,19.90
2017-08-01T22:44:19.612Z,20.10
2017-08-01T22:46:47.158Z,20.10
2017-08-01T22:49:14.679Z,20.10
2017-08-01T22:51:42.229Z,20.20
2017-08-01T22:54:09.754Z,20.20
2017-08-01T22:56:37.302Z,20.20
2017-08-01T22:59:04.819Z,20.30
2017-08-01T23:01:33.121Z,20.20
2017-08-01T23:04:00.647Z,20.20
2017-08-01T23:06:28.190Z,20.20
2017-08-01T23:08:55.711Z,20.10
2017-08-01T23:11:23.231Z,20.10
2017-08-01T23:13:51.538Z,20.20
2017-08-01T23:16:19.054Z,20.20
2017-08-01T23:18:46.590Z,20.20
2017-08-01T23:21:14.119Z,20.10
2017-08-01T23:23:41.671Z,20.10
2017-08-01T23:26:09.968Z,20.00
2017-08-01T23:28:38.263Z,20.00
2017-08-01T23:31:05.780Z,20.00
2017-08-01T23:33:33.328Z,20.00
2017-08-01T23:36:00.848Z,20.10
2017-08-01T23:38:28.371Z,20.10
2017-08-01T23:40:55.916Z,20.20
2017-08-01T23:43:23.431Z,20.20
2017-08-01T23:45:50.975Z,20.30
2017-08-01T23:48:18.502Z,20.30
2017-08-01T23:50:46.806Z,20.30
2017-08-01T23:53:14.326Z,20.30
2017-08-01T23:55:42.628Z,20.30
2017-08-01T23:58:10.147Z,20.30
